createdAt,value
2019-04-21T00:00:05.886Z,6.3
2019-04-21T00:15:13.351Z,5.8
2019-04-21T00:30:21.205Z,5.6
2019-04-21T00:45:18.018Z,5.4
2019-04-21T01:15:30.425Z,5.2
2019-04-21T01:30:22.025Z,5.1
2019-04-21T01:45:21.046Z,4.5
2019-04-21T02:00:12.924Z,4.2
2019-04-21T02:30:35.203Z,4
2019-04-21T02:45:37.582Z,4.1
2019-04-21T03:00:54.657Z,3.9
2019-04-21T04:15:38.021Z,2.9
2019-04-21T04:45:43.809Z,3.1
2019-04-21T05:00:34.191Z,3.6
2019-04-21T05:15:31.598Z,4.2
2019-04-21T05:30:33.674Z,4.8
2019-04-21T05:45:26.663Z,5.6
2019-04-21T06:00:38.862Z,6.4
2019-04-21T06:15:29.189Z,7.1
2019-04-21T06:30:25.094Z,8
2019-04-21T06:45:27.111Z,8.9
2019-04-21T07:00:24.567Z,9.9
2019-04-21T07:15:24.768Z,11.2
2019-04-21T07:30:29.254Z,12.3
2019-04-21T07:45:16.306Z,13.7
2019-04-21T08:00:44.608Z,14.8
2019-04-21T08:30:25.519Z,17.5
2019-04-21T09:00:25.845Z,19
2019-04-21T09:15:18.769Z,20.1
2019-04-21T09:30:05.011Z,21.2
2019-04-21T09:45:05.831Z,21.8
2019-04-21T10:00:08.517Z,22.2
2019-04-21T10:15:02.523Z,22.6
2019-04-21T10:30:03.676Z,21.7
2019-04-21T10:45:03.479Z,22.2
2019-04-21T11:00:04.198Z,22.5
2019-04-21T11:15:03.212Z,22.6
2019-04-21T11:30:02.997Z,22.8
2019-04-21T11:45:04.092Z,23.2
2019-04-21T12:00:03.886Z,23.8
2019-04-21T12:15:03.888Z,23.3
2019-04-21T12:30:03.879Z,24.5
2019-04-21T12:45:03.608Z,24.2
2019-04-21T13:00:03.170Z,24.2
2019-04-21T13:15:04.199Z,24.2
2019-04-21T13:30:04.212Z,24.5
2019-04-21T13:45:04.471Z,23.4
2019-04-21T14:00:03.594Z,24.1
2019-04-21T14:15:04.127Z,24.2
2019-04-21T14:30:02.998Z,23.6
2019-04-21T14:45:03.237Z,23.3
2019-04-21T15:00:03.012Z,22.9
2019-04-21T15:15:02.662Z,22.4
2019-04-21T15:30:04.708Z,21.9
2019-04-21T15:45:02.938Z,21.8
2019-04-21T16:00:04.496Z,21.1
2019-04-21T16:15:04.781Z,20.6
2019-04-21T16:30:03.875Z,20.5
2019-04-21T16:45:03.201Z,20
2019-04-21T17:00:04.393Z,19.6
2019-04-21T17:15:18.207Z,19.4
2019-04-21T17:30:04.224Z,18.8
2019-04-21T17:45:03.672Z,17.9
2019-04-21T18:00:33.401Z,17
2019-04-21T18:15:21.482Z,16.1
2019-04-21T18:30:02.757Z,15.4
2019-04-21T19:00:08.470Z,13.6
2019-04-21T19:15:19.589Z,12.9
2019-04-21T19:30:28.081Z,12.6
2019-04-21T19:45:17.471Z,11.9
2019-04-21T20:00:04.095Z,11.3
2019-04-21T20:15:29.895Z,11.1
2019-04-21T20:30:19.906Z,10.5
2019-04-21T21:00:18.183Z,9.8
2019-04-21T21:15:14.152Z,9.4
2019-04-21T21:30:14.212Z,9.4
2019-04-21T21:45:10.162Z,9
2019-04-21T22:00:07.448Z,8.8
2019-04-21T22:15:10.729Z,8.7
2019-04-21T22:30:05.585Z,8.4
2019-04-21T22:45:03.436Z,8.3
2019-04-21T23:00:05.542Z,7.7
2019-04-21T23:15:08.121Z,7.4
2019-04-21T23:30:25.365Z,7.2
2019-04-21T23:45:03.612Z,7
